sensor_id;sensor_type;location;lat;lon;timestamp;P1;durP1;ratioP1;P2;durP2;ratioP2
40847;SDS011;26570;50.962;5.340;2022-10-23T00:00:22;12.37;;;3.63;;
40847;SDS011;26570;50.962;5.340;2022-10-23T00:03:08;13.17;;;2.93;;
40847;SDS011;26570;50.962;5.340;2022-10-23T00:05:55;20.47;;;3.53;;
40847;SDS011;26570;50.962;5.340;2022-10-23T00:08:44;15.43;;;3.37;;
40847;SDS011;26570;50.962;5.340;2022-10-23T00:11:32;10.03;;;2.90;;
40847;SDS011;26570;50.962;5.340;2022-10-23T00:14:20;17.20;;;3.03;;
40847;SDS011;26570;50.962;5.340;2022-10-23T00:17:09;15.70;;;3.10;;
40847;SDS011;26570;50.962;5.340;2022-10-23T00:19:57;19.00;;;6.93;;
40847;SDS011;26570;50.962;5.340;2022-10-23T00:22:44;23.13;;;6.80;;
40847;SDS011;26570;50.962;5.340;2022-10-23T00:25:30;27.20;;;5.50;;
40847;SDS011;26570;50.962;5.340;2022-10-23T00:28:17;22.00;;;7.17;;
40847;SDS011;26570;50.962;5.340;2022-10-23T00:31:03;21.77;;;6.90;;
40847;SDS011;26570;50.962;5.340;2022-10-23T00:33:50;20.93;;;5.20;;
40847;SDS011;26570;50.962;5.340;2022-10-23T00:36:37;19.43;;;5.10;;
40847;SDS011;26570;50.962;5.340;2022-10-23T00:39:24;28.50;;;4.50;;
40847;SDS011;26570;50.962;5.340;2022-10-23T00:42:16;12.57;;;3.17;;
40847;SDS011;26570;50.962;5.340;2022-10-23T00:45:11;26.70;;;4.57;;
40847;SDS011;26570;50.962;5.340;2022-10-23T00:54:45;18.07;;;4.00;;
40847;SDS011;26570;50.962;5.340;2022-10-23T00:57:32;19.13;;;3.97;;
40847;SDS011;26570;50.962;5.340;2022-10-23T01:00:24;16.37;;;3.53;;
40847;SDS011;26570;50.962;5.340;2022-10-23T01:03:13;18.83;;;3.40;;
40847;SDS011;26570;50.962;5.340;2022-10-23T01:06:05;12.10;;;3.13;;
40847;SDS011;26570;50.962;5.340;2022-10-23T01:11:56;19.20;;;4.53;;
40847;SDS011;26570;50.962;5.340;2022-10-23T01:18:38;12.77;;;2.87;;
40847;SDS011;26570;50.962;5.340;2022-10-23T01:30:18;14.17;;;3.10;;
40847;SDS011;26570;50.962;5.340;2022-10-23T01:33:09;16.00;;;2.67;;
40847;SDS011;26570;50.962;5.340;2022-10-23T01:36:11;18.67;;;3.95;;
40847;SDS011;26570;50.962;5.340;2022-10-23T01:39:08;15.82;;;3.65;;
40847;SDS011;26570;50.962;5.340;2022-10-23T01:45:29;13.33;;;2.97;;
40847;SDS011;26570;50.962;5.340;2022-10-23T01:48:26;13.27;;;2.73;;
40847;SDS011;26570;50.962;5.340;2022-10-23T01:51:15;12.83;;;2.30;;
40847;SDS011;26570;50.962;5.340;2022-10-23T01:54:04;9.87;;;2.40;;
40847;SDS011;26570;50.962;5.340;2022-10-23T01:56:55;16.30;;;2.63;;
40847;SDS011;26570;50.962;5.340;2022-10-23T01:59:45;12.13;;;2.53;;
40847;SDS011;26570;50.962;5.340;2022-10-23T02:05:28;16.40;;;3.50;;
40847;SDS011;26570;50.962;5.340;2022-10-23T02:08:15;12.60;;;2.80;;
40847;SDS011;26570;50.962;5.340;2022-10-23T02:14:45;14.10;;;2.73;;
40847;SDS011;26570;50.962;5.340;2022-10-23T02:17:13;19.03;;;2.80;;
40847;SDS011;26570;50.962;5.340;2022-10-23T02:34:25;13.87;;;3.30;;
40847;SDS011;26570;50.962;5.340;2022-10-23T02:46:21;13.30;;;3.23;;
40847;SDS011;26570;50.962;5.340;2022-10-23T06:48:58;4.10;;;1.63;;
40847;SDS011;26570;50.962;5.340;2022-10-23T06:51:46;4.37;;;1.33;;
40847;SDS011;26570;50.962;5.340;2022-10-23T06:54:38;6.27;;;1.67;;
40847;SDS011;26570;50.962;5.340;2022-10-23T06:57:26;5.13;;;1.10;;
40847;SDS011;26570;50.962;5.340;2022-10-23T07:00:13;7.70;;;1.10;;
40847;SDS011;26570;50.962;5.340;2022-10-23T07:02:59;3.97;;;0.90;;
40847;SDS011;26570;50.962;5.340;2022-10-23T07:05:44;4.20;;;0.97;;
40847;SDS011;26570;50.962;5.340;2022-10-23T07:08:33;8.77;;;1.27;;
40847;SDS011;26570;50.962;5.340;2022-10-23T07:11:19;5.30;;;0.90;;
40847;SDS011;26570;50.962;5.340;2022-10-23T07:14:07;8.60;;;1.10;;
40847;SDS011;26570;50.962;5.340;2022-10-23T07:16:54;6.03;;;0.90;;
40847;SDS011;26570;50.962;5.340;2022-10-23T07:19:49;6.63;;;1.30;;
40847;SDS011;26570;50.962;5.340;2022-10-23T07:28:04;5.83;;;1.00;;
40847;SDS011;26570;50.962;5.340;2022-10-23T07:30:56;1.90;;;0.80;;
40847;SDS011;26570;50.962;5.340;2022-10-23T07:33:42;4.10;;;0.70;;
40847;SDS011;26570;50.962;5.340;2022-10-23T07:36:27;5.53;;;0.90;;
40847;SDS011;26570;50.962;5.340;2022-10-23T07:39:11;3.70;;;0.80;;
40847;SDS011;26570;50.962;5.340;2022-10-23T07:41:57;5.13;;;0.90;;
40847;SDS011;26570;50.962;5.340;2022-10-23T07:44:44;3.87;;;1.00;;
40847;SDS011;26570;50.962;5.340;2022-10-23T07:47:29;5.40;;;0.77;;
40847;SDS011;26570;50.962;5.340;2022-10-23T07:50:15;3.93;;;0.60;;
40847;SDS011;26570;50.962;5.340;2022-10-23T07:53:00;2.03;;;0.63;;
40847;SDS011;26570;50.962;5.340;2022-10-23T07:55:52;7.87;;;0.63;;
40847;SDS011;26570;50.962;5.340;2022-10-23T07:58:41;5.03;;;0.60;;
40847;SDS011;26570;50.962;5.340;2022-10-23T08:01:28;5.90;;;1.00;;
40847;SDS011;26570;50.962;5.340;2022-10-23T08:04:18;2.83;;;0.60;;
40847;SDS011;26570;50.962;5.340;2022-10-23T08:07:02;4.30;;;0.60;;
40847;SDS011;26570;50.962;5.340;2022-10-23T08:09:47;6.60;;;0.60;;
40847;SDS011;26570;50.962;5.340;2022-10-23T08:12:32;2.30;;;0.50;;
40847;SDS011;26570;50.962;5.340;2022-10-23T08:15:16;3.50;;;0.60;;
40847;SDS011;26570;50.962;5.340;2022-10-23T08:18:01;2.93;;;0.60;;
40847;SDS011;26570;50.962;5.340;2022-10-23T08:20:46;7.37;;;0.63;;
40847;SDS011;26570;50.962;5.340;2022-10-23T08:23:31;6.93;;;0.60;;
40847;SDS011;26570;50.962;5.340;2022-10-23T08:26:16;6.00;;;0.50;;
40847;SDS011;26570;50.962;5.340;2022-10-23T08:29:01;4.30;;;0.50;;
40847;SDS011;26570;50.962;5.340;2022-10-23T08:31:46;5.97;;;0.60;;
40847;SDS011;26570;50.962;5.340;2022-10-23T08:34:31;4.23;;;0.50;;
40847;SDS011;26570;50.962;5.340;2022-10-23T08:37:15;9.83;;;0.60;;
40847;SDS011;26570;50.962;5.340;2022-10-23T08:40:00;2.47;;;0.63;;
40847;SDS011;26570;50.962;5.340;2022-10-23T08:42:46;3.83;;;0.77;;
40847;SDS011;26570;50.962;5.340;2022-10-23T08:45:44;5.97;;;0.70;;
40847;SDS011;26570;50.962;5.340;2022-10-23T08:48:41;4.33;;;0.60;;
40847;SDS011;26570;50.962;5.340;2022-10-23T08:51:34;4.10;;;0.80;;
40847;SDS011;26570;50.962;5.340;2022-10-23T08:54:38;2.38;;;0.52;;
40847;SDS011;26570;50.962;5.340;2022-10-23T08:58:28;5.57;;;0.60;;
40847;SDS011;26570;50.962;5.340;2022-10-23T09:00:51;1.90;;;0.50;;
40847;SDS011;26570;50.962;5.340;2022-10-23T09:03:36;5.73;;;0.50;;
40847;SDS011;26570;50.962;5.340;2022-10-23T09:06:32;4.83;;;0.50;;
40847;SDS011;26570;50.962;5.340;2022-10-23T09:12:22;5.50;;;0.50;;
40847;SDS011;26570;50.962;5.340;2022-10-23T09:18:17;5.60;;;0.40;;
40847;SDS011;26570;50.962;5.340;2022-10-23T09:21:07;5.37;;;0.50;;
40847;SDS011;26570;50.962;5.340;2022-10-23T09:23:53;4.33;;;0.43;;
40847;SDS011;26570;50.962;5.340;2022-10-23T09:26:38;5.30;;;0.70;;
40847;SDS011;26570;50.962;5.340;2022-10-23T09:29:33;3.23;;;0.60;;
40847;SDS011;26570;50.962;5.340;2022-10-23T09:32:36;1.33;;;0.50;;
40847;SDS011;26570;50.962;5.340;2022-10-23T09:35:22;6.30;;;0.50;;
40847;SDS011;26570;50.962;5.340;2022-10-23T09:38:20;3.40;;;0.50;;
40847;SDS011;26570;50.962;5.340;2022-10-23T09:41:22;2.43;;;0.40;;
40847;SDS011;26570;50.962;5.340;2022-10-23T09:47:09;4.40;;;0.47;;
40847;SDS011;26570;50.962;5.340;2022-10-23T09:49:55;3.87;;;0.50;;
40847;SDS011;26570;50.962;5.340;2022-10-23T09:52:40;1.70;;;0.40;;
40847;SDS011;26570;50.962;5.340;2022-10-23T09:55:27;4.67;;;0.50;;
40847;SDS011;26570;50.962;5.340;2022-10-23T09:58:19;2.65;;;0.52;;
40847;SDS011;26570;50.962;5.340;2022-10-23T10:01:20;4.53;;;0.43;;
40847;SDS011;26570;50.962;5.340;2022-10-23T10:04:06;1.67;;;0.40;;
40847;SDS011;26570;50.962;5.340;2022-10-23T10:06:55;1.55;;;0.60;;
40847;SDS011;26570;50.962;5.340;2022-10-23T10:09:45;5.43;;;0.70;;
40847;SDS011;26570;50.962;5.340;2022-10-23T10:12:48;2.60;;;0.40;;
40847;SDS011;26570;50.962;5.340;2022-10-23T10:15:46;3.60;;;0.50;;
40847;SDS011;26570;50.962;5.340;2022-10-23T10:18:42;4.22;;;0.50;;
40847;SDS011;26570;50.962;5.340;2022-10-23T10:24:45;4.50;;;0.50;;
40847;SDS011;26570;50.962;5.340;2022-10-23T10:37:00;5.72;;;0.50;;
40847;SDS011;26570;50.962;5.340;2022-10-23T10:40:18;2.67;;;0.40;;
40847;SDS011;26570;50.962;5.340;2022-10-23T10:55:24;5.07;;;0.40;;
40847;SDS011;26570;50.962;5.340;2022-10-23T10:58:19;3.33;;;0.52;;
40847;SDS011;26570;50.962;5.340;2022-10-23T11:01:20;3.20;;;0.40;;
40847;SDS011;26570;50.962;5.340;2022-10-23T11:04:25;2.35;;;0.50;;
40847;SDS011;26570;50.962;5.340;2022-10-23T11:07:23;2.65;;;0.40;;
40847;SDS011;26570;50.962;5.340;2022-10-23T11:10:16;4.95;;;0.40;;
40847;SDS011;26570;50.962;5.340;2022-10-23T11:13:03;1.88;;;0.32;;
40847;SDS011;26570;50.962;5.340;2022-10-23T11:15:48;3.67;;;0.40;;
40847;SDS011;26570;50.962;5.340;2022-10-23T11:18:35;2.20;;;0.40;;
40847;SDS011;26570;50.962;5.340;2022-10-23T11:27:59;0.95;;;0.30;;
40847;SDS011;26570;50.962;5.340;2022-10-23T11:39:41;5.68;;;0.50;;
40847;SDS011;26570;50.962;5.340;2022-10-23T11:54:21;7.38;;;0.60;;
40847;SDS011;26570;50.962;5.340;2022-10-23T11:57:10;4.43;;;0.50;;
40847;SDS011;26570;50.962;5.340;2022-10-23T11:59:58;5.75;;;0.63;;
40847;SDS011;26570;50.962;5.340;2022-10-23T12:02:48;5.18;;;0.60;;
40847;SDS011;26570;50.962;5.340;2022-10-23T12:05:37;2.85;;;0.50;;
40847;SDS011;26570;50.962;5.340;2022-10-23T12:08:26;1.65;;;0.50;;
40847;SDS011;26570;50.962;5.340;2022-10-23T12:14:35;2.67;;;0.40;;
40847;SDS011;26570;50.962;5.340;2022-10-23T12:17:32;3.03;;;0.50;;
40847;SDS011;26570;50.962;5.340;2022-10-23T12:20:22;4.60;;;0.52;;
40847;SDS011;26570;50.962;5.340;2022-10-23T12:23:27;5.93;;;0.60;;
40847;SDS011;26570;50.962;5.340;2022-10-23T12:39:24;2.53;;;0.50;;
40847;SDS011;26570;50.962;5.340;2022-10-23T12:42:19;3.47;;;0.60;;
40847;SDS011;26570;50.962;5.340;2022-10-23T12:45:14;2.17;;;0.50;;
40847;SDS011;26570;50.962;5.340;2022-10-23T12:48:02;5.25;;;0.60;;
40847;SDS011;26570;50.962;5.340;2022-10-23T12:50:53;2.80;;;0.50;;
40847;SDS011;26570;50.962;5.340;2022-10-23T12:53:38;4.65;;;0.60;;
40847;SDS011;26570;50.962;5.340;2022-10-23T12:56:26;2.10;;;0.60;;
40847;SDS011;26570;50.962;5.340;2022-10-23T12:59:37;2.38;;;0.40;;
40847;SDS011;26570;50.962;5.340;2022-10-23T13:05:13;3.28;;;0.50;;
40847;SDS011;26570;50.962;5.340;2022-10-23T13:08:02;5.43;;;0.43;;
40847;SDS011;26570;50.962;5.340;2022-10-23T13:10:50;4.13;;;0.40;;
40847;SDS011;26570;50.962;5.340;2022-10-23T13:13:35;2.63;;;0.70;;
40847;SDS011;26570;50.962;5.340;2022-10-23T13:16:22;5.10;;;0.40;;
40847;SDS011;26570;50.962;5.340;2022-10-23T13:19:22;6.68;;;0.50;;
40847;SDS011;26570;50.962;5.340;2022-10-23T13:22:14;4.32;;;0.40;;
40847;SDS011;26570;50.962;5.340;2022-10-23T13:25:17;3.80;;;0.40;;
40847;SDS011;26570;50.962;5.340;2022-10-23T13:28:21;5.75;;;0.40;;
40847;SDS011;26570;50.962;5.340;2022-10-23T13:31:21;5.25;;;0.60;;
40847;SDS011;26570;50.962;5.340;2022-10-23T13:34:26;4.50;;;0.43;;
40847;SDS011;26570;50.962;5.340;2022-10-23T13:37:21;4.70;;;0.50;;
40847;SDS011;26570;50.962;5.340;2022-10-23T13:40:26;2.00;;;0.40;;
40847;SDS011;26570;50.962;5.340;2022-10-23T13:43:12;10.77;;;0.50;;
40847;SDS011;26570;50.962;5.340;2022-10-23T13:46:02;2.15;;;0.40;;
40847;SDS011;26570;50.962;5.340;2022-10-23T13:48:47;3.42;;;0.50;;
40847;SDS011;26570;50.962;5.340;2022-10-23T13:51:34;5.35;;;0.50;;
40847;SDS011;26570;50.962;5.340;2022-10-23T13:54:25;6.25;;;0.50;;
40847;SDS011;26570;50.962;5.340;2022-10-23T13:57:12;3.85;;;0.40;;
40847;SDS011;26570;50.962;5.340;2022-10-23T13:59:59;1.90;;;0.43;;
40847;SDS011;26570;50.962;5.340;2022-10-23T14:02:45;6.15;;;0.50;;
40847;SDS011;26570;50.962;5.340;2022-10-23T14:05:32;6.15;;;0.40;;
40847;SDS011;26570;50.962;5.340;2022-10-23T14:08:20;2.67;;;0.50;;
40847;SDS011;26570;50.962;5.340;2022-10-23T14:11:06;6.53;;;0.40;;
40847;SDS011;26570;50.962;5.340;2022-10-23T14:13:52;6.97;;;0.60;;
40847;SDS011;26570;50.962;5.340;2022-10-23T14:16:38;3.10;;;0.38;;
40847;SDS011;26570;50.962;5.340;2022-10-23T14:19:23;4.00;;;0.50;;
40847;SDS011;26570;50.962;5.340;2022-10-23T14:22:10;2.90;;;0.40;;
40847;SDS011;26570;50.962;5.340;2022-10-23T14:24:55;5.18;;;0.40;;
40847;SDS011;26570;50.962;5.340;2022-10-23T14:27:40;11.50;;;0.50;;
40847;SDS011;26570;50.962;5.340;2022-10-23T14:30:35;2.92;;;0.50;;
40847;SDS011;26570;50.962;5.340;2022-10-23T14:33:20;7.80;;;0.50;;
40847;SDS011;26570;50.962;5.340;2022-10-23T14:36:06;4.15;;;0.43;;
40847;SDS011;26570;50.962;5.340;2022-10-23T14:38:55;6.68;;;0.50;;
40847;SDS011;26570;50.962;5.340;2022-10-23T14:41:43;5.45;;;0.50;;
40847;SDS011;26570;50.962;5.340;2022-10-23T14:44:29;6.50;;;0.47;;
40847;SDS011;26570;50.962;5.340;2022-10-23T14:47:16;7.32;;;0.57;;
40847;SDS011;26570;50.962;5.340;2022-10-23T14:50:02;6.95;;;0.60;;
40847;SDS011;26570;50.962;5.340;2022-10-23T14:52:48;2.60;;;0.50;;
40847;SDS011;26570;50.962;5.340;2022-10-23T14:55:34;5.88;;;0.57;;
40847;SDS011;26570;50.962;5.340;2022-10-23T14:58:19;3.95;;;0.50;;
40847;SDS011;26570;50.962;5.340;2022-10-23T15:01:07;5.22;;;0.55;;
40847;SDS011;26570;50.962;5.340;2022-10-23T15:03:54;3.40;;;0.50;;
40847;SDS011;26570;50.962;5.340;2022-10-23T15:06:40;4.13;;;0.50;;
40847;SDS011;26570;50.962;5.340;2022-10-23T15:09:26;5.65;;;0.88;;
40847;SDS011;26570;50.962;5.340;2022-10-23T15:12:11;3.03;;;0.60;;
40847;SDS011;26570;50.962;5.340;2022-10-23T15:15:09;7.03;;;0.60;;
40847;SDS011;26570;50.962;5.340;2022-10-23T15:17:55;4.38;;;0.60;;
40847;SDS011;26570;50.962;5.340;2022-10-23T15:20:41;3.90;;;0.60;;
40847;SDS011;26570;50.962;5.340;2022-10-23T15:23:27;2.97;;;0.60;;
40847;SDS011;26570;50.962;5.340;2022-10-23T15:26:14;4.28;;;0.60;;
40847;SDS011;26570;50.962;5.340;2022-10-23T15:29:03;6.40;;;0.60;;
40847;SDS011;26570;50.962;5.340;2022-10-23T15:32:07;2.42;;;0.50;;
40847;SDS011;26570;50.962;5.340;2022-10-23T15:34:53;3.40;;;0.68;;
40847;SDS011;26570;50.962;5.340;2022-10-23T15:37:41;6.75;;;0.68;;
40847;SDS011;26570;50.962;5.340;2022-10-23T15:40:27;5.13;;;1.05;;
40847;SDS011;26570;50.962;5.340;2022-10-23T15:43:13;6.50;;;0.85;;
40847;SDS011;26570;50.962;5.340;2022-10-23T15:45:59;3.67;;;0.57;;
40847;SDS011;26570;50.962;5.340;2022-10-23T15:49:07;3.08;;;0.60;;
40847;SDS011;26570;50.962;5.340;2022-10-23T15:51:53;2.33;;;0.60;;
40847;SDS011;26570;50.962;5.340;2022-10-23T15:54:39;6.50;;;0.73;;
40847;SDS011;26570;50.962;5.340;2022-10-23T15:57:25;3.67;;;0.63;;
40847;SDS011;26570;50.962;5.340;2022-10-23T16:00:11;5.90;;;0.70;;
40847;SDS011;26570;50.962;5.340;2022-10-23T16:02:57;5.57;;;0.73;;
40847;SDS011;26570;50.962;5.340;2022-10-23T16:05:43;4.13;;;0.80;;
40847;SDS011;26570;50.962;5.340;2022-10-23T16:08:31;5.95;;;0.60;;
40847;SDS011;26570;50.962;5.340;2022-10-23T16:11:30;23.00;;;1.55;;
40847;SDS011;26570;50.962;5.340;2022-10-23T16:14:19;6.07;;;0.90;;
40847;SDS011;26570;50.962;5.340;2022-10-23T16:17:04;5.03;;;0.70;;
40847;SDS011;26570;50.962;5.340;2022-10-23T16:20:16;3.70;;;0.63;;
40847;SDS011;26570;50.962;5.340;2022-10-23T16:23:06;4.43;;;0.70;;
40847;SDS011;26570;50.962;5.340;2022-10-23T16:25:54;4.85;;;0.70;;
40847;SDS011;26570;50.962;5.340;2022-10-23T16:28:45;3.67;;;0.70;;
40847;SDS011;26570;50.962;5.340;2022-10-23T16:31:30;3.53;;;0.70;;
40847;SDS011;26570;50.962;5.340;2022-10-23T16:34:17;7.03;;;0.90;;
40847;SDS011;26570;50.962;5.340;2022-10-23T16:37:03;4.93;;;0.90;;
40847;SDS011;26570;50.962;5.340;2022-10-23T16:39:48;6.57;;;0.80;;
40847;SDS011;26570;50.962;5.340;2022-10-23T16:42:33;7.10;;;0.60;;
40847;SDS011;26570;50.962;5.340;2022-10-23T16:45:27;3.17;;;0.60;;
40847;SDS011;26570;50.962;5.340;2022-10-23T16:48:21;5.23;;;0.50;;
40847;SDS011;26570;50.962;5.340;2022-10-23T16:51:11;7.63;;;0.70;;
40847;SDS011;26570;50.962;5.340;2022-10-23T16:54:23;7.43;;;0.97;;
40847;SDS011;26570;50.962;5.340;2022-10-23T16:57:11;4.40;;;0.60;;
40847;SDS011;26570;50.962;5.340;2022-10-23T16:59:57;5.70;;;0.60;;
40847;SDS011;26570;50.962;5.340;2022-10-23T17:02:43;5.77;;;0.60;;
40847;SDS011;26570;50.962;5.340;2022-10-23T17:06:07;10.27;;;0.60;;
40847;SDS011;26570;50.962;5.340;2022-10-23T17:08:57;2.97;;;0.90;;
40847;SDS011;26570;50.962;5.340;2022-10-23T17:11:46;3.23;;;0.80;;
40847;SDS011;26570;50.962;5.340;2022-10-23T17:14:33;5.03;;;0.60;;
40847;SDS011;26570;50.962;5.340;2022-10-23T17:17:22;7.53;;;0.60;;
40847;SDS011;26570;50.962;5.340;2022-10-23T17:20:10;10.17;;;1.03;;
40847;SDS011;26570;50.962;5.340;2022-10-23T17:22:56;4.77;;;0.90;;
40847;SDS011;26570;50.962;5.340;2022-10-23T17:25:42;3.73;;;0.60;;
40847;SDS011;26570;50.962;5.340;2022-10-23T17:28:31;3.63;;;0.70;;
40847;SDS011;26570;50.962;5.340;2022-10-23T17:31:24;5.10;;;0.80;;
40847;SDS011;26570;50.962;5.340;2022-10-23T17:34:13;6.63;;;1.03;;
40847;SDS011;26570;50.962;5.340;2022-10-23T17:37:01;4.53;;;0.70;;
40847;SDS011;26570;50.962;5.340;2022-10-23T17:39:47;5.77;;;0.70;;
40847;SDS011;26570;50.962;5.340;2022-10-23T17:42:36;7.27;;;0.80;;
40847;SDS011;26570;50.962;5.340;2022-10-23T17:45:23;2.67;;;0.50;;
40847;SDS011;26570;50.962;5.340;2022-10-23T17:48:17;5.63;;;0.60;;
40847;SDS011;26570;50.962;5.340;2022-10-23T17:51:13;3.90;;;0.80;;
40847;SDS011;26570;50.962;5.340;2022-10-23T17:54:03;3.33;;;0.60;;
40847;SDS011;26570;50.962;5.340;2022-10-23T17:56:51;4.40;;;0.50;;
40847;SDS011;26570;50.962;5.340;2022-10-23T17:59:38;3.77;;;0.53;;
40847;SDS011;26570;50.962;5.340;2022-10-23T18:02:25;2.47;;;0.50;;
40847;SDS011;26570;50.962;5.340;2022-10-23T18:05:12;11.27;;;0.97;;
40847;SDS011;26570;50.962;5.340;2022-10-23T18:08:00;4.40;;;0.70;;
40847;SDS011;26570;50.962;5.340;2022-10-23T18:10:47;4.37;;;0.47;;
40847;SDS011;26570;50.962;5.340;2022-10-23T18:13:34;7.63;;;0.80;;
40847;SDS011;26570;50.962;5.340;2022-10-23T18:16:21;3.13;;;0.40;;
40847;SDS011;26570;50.962;5.340;2022-10-23T18:19:09;5.13;;;0.40;;
40847;SDS011;26570;50.962;5.340;2022-10-23T18:21:56;4.60;;;0.40;;
40847;SDS011;26570;50.962;5.340;2022-10-23T18:24:43;4.27;;;0.53;;
40847;SDS011;26570;50.962;5.340;2022-10-23T18:27:30;1.57;;;0.30;;
40847;SDS011;26570;50.962;5.340;2022-10-23T18:30:17;3.50;;;0.40;;
40847;SDS011;26570;50.962;5.340;2022-10-23T18:33:05;2.37;;;0.30;;
40847;SDS011;26570;50.962;5.340;2022-10-23T18:35:51;7.10;;;0.80;;
40847;SDS011;26570;50.962;5.340;2022-10-23T18:38:39;12.27;;;0.50;;
40847;SDS011;26570;50.962;5.340;2022-10-23T18:41:26;4.17;;;0.70;;
40847;SDS011;26570;50.962;5.340;2022-10-23T18:44:17;2.73;;;0.30;;
40847;SDS011;26570;50.962;5.340;2022-10-23T18:47:04;8.93;;;0.50;;
40847;SDS011;26570;50.962;5.340;2022-10-23T18:49:50;3.20;;;0.40;;
40847;SDS011;26570;50.962;5.340;2022-10-23T18:52:39;3.73;;;0.40;;
40847;SDS011;26570;50.962;5.340;2022-10-23T18:55:25;6.20;;;0.40;;
40847;SDS011;26570;50.962;5.340;2022-10-23T18:58:12;2.00;;;0.50;;
40847;SDS011;26570;50.962;5.340;2022-10-23T19:01:04;3.67;;;0.80;;
40847;SDS011;26570;50.962;5.340;2022-10-23T19:03:50;5.77;;;0.60;;
40847;SDS011;26570;50.962;5.340;2022-10-23T19:06:38;2.67;;;0.40;;
40847;SDS011;26570;50.962;5.340;2022-10-23T19:09:24;2.67;;;0.73;;
40847;SDS011;26570;50.962;5.340;2022-10-23T19:12:11;7.33;;;0.37;;
40847;SDS011;26570;50.962;5.340;2022-10-23T19:14:57;5.43;;;0.40;;
40847;SDS011;26570;50.962;5.340;2022-10-23T19:17:46;3.20;;;0.40;;
40847;SDS011;26570;50.962;5.340;2022-10-23T19:20:33;3.90;;;0.67;;
40847;SDS011;26570;50.962;5.340;2022-10-23T19:23:20;3.00;;;0.50;;
40847;SDS011;26570;50.962;5.340;2022-10-23T19:26:07;6.03;;;0.40;;
40847;SDS011;26570;50.962;5.340;2022-10-23T19:28:56;6.27;;;0.50;;
40847;SDS011;26570;50.962;5.340;2022-10-23T19:31:43;7.17;;;0.80;;
40847;SDS011;26570;50.962;5.340;2022-10-23T19:34:32;7.57;;;0.83;;
40847;SDS011;26570;50.962;5.340;2022-10-23T19:37:21;6.67;;;0.60;;
40847;SDS011;26570;50.962;5.340;2022-10-23T19:40:07;8.57;;;0.60;;
40847;SDS011;26570;50.962;5.340;2022-10-23T19:43:18;3.67;;;0.50;;
40847;SDS011;26570;50.962;5.340;2022-10-23T19:46:05;12.83;;;0.60;;
40847;SDS011;26570;50.962;5.340;2022-10-23T19:48:54;8.83;;;0.70;;
40847;SDS011;26570;50.962;5.340;2022-10-23T19:51:44;5.23;;;0.70;;
40847;SDS011;26570;50.962;5.340;2022-10-23T19:54:33;4.03;;;0.50;;
40847;SDS011;26570;50.962;5.340;2022-10-23T19:57:21;3.53;;;0.50;;
40847;SDS011;26570;50.962;5.340;2022-10-23T20:00:08;3.90;;;0.40;;
40847;SDS011;26570;50.962;5.340;2022-10-23T20:02:56;7.73;;;0.50;;
40847;SDS011;26570;50.962;5.340;2022-10-23T20:05:43;5.60;;;0.50;;
40847;SDS011;26570;50.962;5.340;2022-10-23T20:08:30;4.13;;;0.50;;
40847;SDS011;26570;50.962;5.340;2022-10-23T20:11:18;6.23;;;1.07;;
40847;SDS011;26570;50.962;5.340;2022-10-23T20:14:09;5.47;;;0.33;;
40847;SDS011;26570;50.962;5.340;2022-10-23T20:16:56;6.17;;;0.53;;
40847;SDS011;26570;50.962;5.340;2022-10-23T20:19:45;3.33;;;0.40;;
40847;SDS011;26570;50.962;5.340;2022-10-23T20:22:33;7.40;;;0.40;;
40847;SDS011;26570;50.962;5.340;2022-10-23T20:25:22;6.70;;;0.40;;
40847;SDS011;26570;50.962;5.340;2022-10-23T20:33:48;5.37;;;0.50;;
40847;SDS011;26570;50.962;5.340;2022-10-23T20:36:38;3.53;;;0.43;;
40847;SDS011;26570;50.962;5.340;2022-10-23T20:39:25;2.70;;;0.50;;
40847;SDS011;26570;50.962;5.340;2022-10-23T20:42:25;11.23;;;0.80;;
40847;SDS011;26570;50.962;5.340;2022-10-23T20:45:11;6.47;;;0.50;;
40847;SDS011;26570;50.962;5.340;2022-10-23T20:48:07;3.80;;;0.63;;
40847;SDS011;26570;50.962;5.340;2022-10-23T20:50:54;3.00;;;0.50;;
40847;SDS011;26570;50.962;5.340;2022-10-23T20:53:46;6.17;;;0.70;;
40847;SDS011;26570;50.962;5.340;2022-10-23T20:56:35;6.27;;;0.53;;
40847;SDS011;26570;50.962;5.340;2022-10-23T20:59:22;4.07;;;0.50;;
40847;SDS011;26570;50.962;5.340;2022-10-23T21:02:11;4.97;;;0.50;;
40847;SDS011;26570;50.962;5.340;2022-10-23T21:08:17;8.17;;;0.60;;
40847;SDS011;26570;50.962;5.340;2022-10-23T21:11:05;6.33;;;0.90;;
40847;SDS011;26570;50.962;5.340;2022-10-23T21:14:05;6.57;;;0.70;;
40847;SDS011;26570;50.962;5.340;2022-10-23T21:16:54;7.30;;;0.50;;
40847;SDS011;26570;50.962;5.340;2022-10-23T21:19:40;9.87;;;0.70;;
40847;SDS011;26570;50.962;5.340;2022-10-23T21:22:27;5.23;;;0.50;;
40847;SDS011;26570;50.962;5.340;2022-10-23T21:25:16;6.13;;;0.60;;
40847;SDS011;26570;50.962;5.340;2022-10-23T21:28:03;7.30;;;0.60;;
40847;SDS011;26570;50.962;5.340;2022-10-23T21:30:50;3.53;;;0.60;;
40847;SDS011;26570;50.962;5.340;2022-10-23T21:33:37;8.43;;;0.50;;
40847;SDS011;26570;50.962;5.340;2022-10-23T21:36:24;9.33;;;0.60;;
40847;SDS011;26570;50.962;5.340;2022-10-23T21:39:12;15.47;;;0.90;;
40847;SDS011;26570;50.962;5.340;2022-10-23T21:44:51;7.90;;;1.73;;
40847;SDS011;26570;50.962;5.340;2022-10-23T21:47:38;6.67;;;0.63;;
40847;SDS011;26570;50.962;5.340;2022-10-23T21:50:26;8.50;;;0.83;;
40847;SDS011;26570;50.962;5.340;2022-10-23T21:53:13;3.60;;;0.57;;
40847;SDS011;26570;50.962;5.340;2022-10-23T21:56:01;5.17;;;0.60;;
40847;SDS011;26570;50.962;5.340;2022-10-23T21:58:50;4.20;;;0.60;;
40847;SDS011;26570;50.962;5.340;2022-10-23T22:01:41;6.67;;;1.20;;
40847;SDS011;26570;50.962;5.340;2022-10-23T22:04:28;3.33;;;0.60;;
40847;SDS011;26570;50.962;5.340;2022-10-23T22:07:18;4.73;;;0.60;;
40847;SDS011;26570;50.962;5.340;2022-10-23T22:10:04;4.57;;;0.70;;
40847;SDS011;26570;50.962;5.340;2022-10-23T22:12:51;5.37;;;0.60;;
40847;SDS011;26570;50.962;5.340;2022-10-23T22:15:47;6.30;;;0.50;;
40847;SDS011;26570;50.962;5.340;2022-10-23T22:18:34;4.57;;;0.90;;
40847;SDS011;26570;50.962;5.340;2022-10-23T22:21:23;8.07;;;1.13;;
40847;SDS011;26570;50.962;5.340;2022-10-23T22:24:10;8.47;;;0.70;;
40847;SDS011;26570;50.962;5.340;2022-10-23T22:26:56;6.03;;;0.53;;
40847;SDS011;26570;50.962;5.340;2022-10-23T22:29:43;6.63;;;0.50;;
40847;SDS011;26570;50.962;5.340;2022-10-23T22:32:53;6.17;;;0.70;;
40847;SDS011;26570;50.962;5.340;2022-10-23T22:35:39;4.83;;;0.40;;
40847;SDS011;26570;50.962;5.340;2022-10-23T22:38:26;5.80;;;0.60;;
40847;SDS011;26570;50.962;5.340;2022-10-23T22:41:16;3.53;;;0.40;;
40847;SDS011;26570;50.962;5.340;2022-10-23T22:44:04;11.23;;;0.60;;
40847;SDS011;26570;50.962;5.340;2022-10-23T22:46:51;6.63;;;0.60;;
40847;SDS011;26570;50.962;5.340;2022-10-23T22:49:39;10.63;;;0.80;;
40847;SDS011;26570;50.962;5.340;2022-10-23T22:52:25;3.00;;;0.40;;
40847;SDS011;26570;50.962;5.340;2022-10-23T22:55:11;6.40;;;0.43;;
40847;SDS011;26570;50.962;5.340;2022-10-23T22:57:59;5.60;;;0.50;;
40847;SDS011;26570;50.962;5.340;2022-10-23T23:00:48;4.83;;;0.40;;
40847;SDS011;26570;50.962;5.340;2022-10-23T23:03:36;9.57;;;0.50;;
40847;SDS011;26570;50.962;5.340;2022-10-23T23:06:24;6.20;;;0.60;;
40847;SDS011;26570;50.962;5.340;2022-10-23T23:09:14;5.80;;;0.43;;
40847;SDS011;26570;50.962;5.340;2022-10-23T23:12:04;6.63;;;0.50;;
40847;SDS011;26570;50.962;5.340;2022-10-23T23:14:52;6.77;;;0.50;;
40847;SDS011;26570;50.962;5.340;2022-10-23T23:18:02;3.93;;;0.50;;
40847;SDS011;26570;50.962;5.340;2022-10-23T23:20:50;6.40;;;0.40;;
40847;SDS011;26570;50.962;5.340;2022-10-23T23:23:36;7.60;;;0.77;;
40847;SDS011;26570;50.962;5.340;2022-10-23T23:26:22;6.30;;;0.47;;
40847;SDS011;26570;50.962;5.340;2022-10-23T23:29:09;4.33;;;0.63;;
40847;SDS011;26570;50.962;5.340;2022-10-23T23:31:55;5.60;;;0.43;;